createdAt,value
2023-02-10T00:01:59.858Z,56.55
2023-02-10T00:04:28.091Z,56.35
2023-02-10T00:06:56.514Z,54.71
2023-02-10T00:09:25.002Z,55.75
2023-02-10T00:12:00.838Z,55.31
2023-02-10T00:14:32.110Z,55.03
2023-02-10T00:17:01.985Z,56.00
2023-02-10T00:19:32.129Z,56.16
2023-02-10T00:22:01.156Z,55.11
2023-02-10T00:24:30.295Z,55.36
2023-02-10T00:26:58.807Z,54.65
2023-02-10T00:29:29.829Z,55.58
2023-02-10T00:31:59.911Z,55.03
2023-02-10T00:34:29.074Z,54.90
2023-02-10T00:36:57.702Z,53.32
2023-02-10T00:39:26.203Z,53.77
2023-02-10T00:41:55.164Z,54.42
2023-02-10T00:44:23.534Z,56.78
2023-02-10T00:46:52.088Z,55.94
2023-02-10T00:49:22.102Z,56.31
2023-02-10T00:51:51.813Z,55.86
2023-02-10T00:54:20.548Z,54.70
2023-02-10T00:56:48.812Z,55.84
2023-02-10T00:59:17.903Z,56.42
2023-02-10T01:01:46.287Z,55.97
2023-02-10T01:04:15.179Z,55.58
2023-02-10T01:06:45.114Z,56.09
2023-02-10T01:09:13.659Z,54.48
2023-02-10T01:11:43.670Z,55.69
2023-02-10T01:14:12.337Z,56.01
2023-02-10T01:16:42.306Z,55.52
2023-02-10T01:19:11.207Z,54.35
2023-02-10T01:21:39.716Z,54.00
2023-02-10T01:24:09.838Z,54.46
2023-02-10T01:26:38.264Z,54.67
2023-02-10T01:29:06.699Z,55.01
2023-02-10T01:31:35.249Z,54.54
2023-02-10T01:34:06.769Z,55.23
2023-02-10T01:36:39.183Z,54.96
2023-02-10T01:39:10.095Z,54.51
2023-02-10T01:41:38.639Z,54.58
2023-02-10T01:44:28.232Z,53.89
2023-02-10T01:46:58.080Z,53.26
2023-02-10T01:49:29.392Z,54.44
2023-02-10T01:52:01.907Z,53.04
2023-02-10T01:54:34.892Z,53.04
2023-02-10T01:57:04.758Z,53.21
2023-02-10T01:59:37.471Z,53.72
2023-02-10T02:02:07.911Z,52.90
2023-02-10T02:04:40.130Z,51.89
2023-02-10T02:07:08.817Z,54.13
2023-02-10T02:09:39.756Z,53.63
2023-02-10T02:12:17.134Z,54.46
2023-02-10T02:14:53.416Z,53.97
2023-02-10T02:17:30.928Z,54.88
2023-02-10T02:20:43.913Z,54.55
2023-02-10T02:23:26.246Z,55.17
2023-02-10T02:26:43.014Z,55.27
2023-02-10T02:29:29.397Z,55.00
2023-02-10T02:32:04.479Z,54.61
2023-02-10T02:34:41.120Z,54.91
2023-02-10T02:37:15.121Z,54.72
2023-02-10T02:39:46.128Z,55.58
2023-02-10T02:42:19.313Z,55.61
2023-02-10T02:44:49.932Z,54.87
2023-02-10T02:47:31.250Z,54.18
2023-02-10T02:50:12.578Z,54.57
2023-02-10T02:52:54.717Z,54.49
2023-02-10T02:55:32.616Z,54.49
2023-02-10T02:58:10.530Z,55.05
2023-02-10T03:00:40.734Z,53.97
2023-02-10T03:03:12.408Z,54.41
2023-02-10T03:05:43.739Z,54.42
2023-02-10T03:08:12.250Z,54.54
2023-02-10T03:10:40.707Z,54.14
2023-02-10T03:13:10.310Z,54.76
2023-02-10T03:15:38.763Z,53.54
2023-02-10T03:18:07.463Z,53.72
2023-02-10T03:20:37.436Z,56.17
2023-02-10T03:23:07.092Z,55.79
2023-02-10T03:25:35.808Z,54.72
2023-02-10T03:28:03.973Z,55.13
2023-02-10T03:30:32.571Z,54.82
2023-02-10T03:33:00.780Z,55.49
2023-02-10T03:35:29.262Z,54.85
2023-02-10T03:37:59.096Z,54.46
2023-02-10T03:40:27.646Z,55.32
2023-02-10T03:42:56.193Z,55.06
2023-02-10T03:45:24.464Z,53.97
2023-02-10T03:48:14.068Z,55.32
2023-02-10T03:50:42.881Z,54.74
2023-02-10T03:53:12.702Z,55.34
2023-02-10T03:55:43.924Z,56.66
2023-02-10T03:58:12.728Z,56.47
2023-02-10T04:00:41.117Z,56.32
2023-02-10T04:03:11.234Z,55.15
2023-02-10T04:05:40.013Z,54.94
2023-02-10T04:08:08.548Z,54.74
2023-02-10T04:10:38.935Z,56.34
2023-02-10T04:13:07.515Z,56.62
2023-02-10T04:15:35.901Z,55.82
2023-02-10T04:18:04.416Z,55.47
2023-02-10T04:20:32.909Z,55.50
2023-02-10T04:23:01.169Z,56.42
2023-02-10T04:25:29.602Z,56.13
2023-02-10T04:27:59.472Z,56.51
2023-02-10T04:30:28.572Z,56.24
2023-02-10T04:32:57.358Z,55.84
2023-02-10T04:35:25.877Z,55.86
2023-02-10T04:37:54.278Z,56.47
2023-02-10T04:40:22.630Z,56.76
2023-02-10T04:42:51.046Z,56.60
2023-02-10T04:45:21.008Z,55.39
2023-02-10T04:47:49.619Z,55.94
2023-02-10T04:50:18.116Z,56.96
2023-02-10T04:52:46.576Z,57.15
2023-02-10T04:55:15.010Z,55.30
2023-02-10T04:57:43.508Z,56.27
2023-02-10T05:00:13.404Z,57.38
2023-02-10T05:02:43.581Z,57.38
2023-02-10T05:05:14.729Z,58.17
2023-02-10T05:07:43.280Z,58.64
2023-02-10T05:10:11.895Z,57.51
2023-02-10T05:12:41.287Z,57.88
2023-02-10T05:15:10.782Z,56.91
2023-02-10T05:17:39.223Z,58.74
2023-02-10T05:20:10.492Z,58.10
2023-02-10T05:22:39.141Z,57.71
2023-02-10T05:25:08.190Z,56.48
2023-02-10T05:27:37.115Z,57.17
2023-02-10T05:30:07.317Z,57.08
2023-02-10T05:32:35.950Z,57.91
2023-02-10T05:35:04.562Z,57.29
2023-02-10T05:37:34.534Z,56.88
2023-02-10T05:40:03.472Z,57.82
2023-02-10T05:42:32.302Z,57.46
2023-02-10T05:45:01.004Z,57.88
2023-02-10T05:47:29.521Z,57.61
2023-02-10T05:49:57.797Z,56.53
2023-02-10T05:52:26.218Z,55.54
2023-02-10T05:54:56.582Z,56.65
2023-02-10T05:57:25.532Z,57.16
2023-02-10T05:59:53.738Z,57.08
2023-02-10T06:02:22.815Z,55.75
2023-02-10T06:04:51.447Z,55.51
2023-02-10T06:07:20.275Z,56.28
2023-02-10T06:09:48.970Z,56.59
2023-02-10T06:12:18.601Z,55.46
2023-02-10T06:14:47.040Z,56.54
2023-02-10T06:17:15.408Z,55.56
2023-02-10T06:19:43.807Z,54.40
2023-02-10T06:22:12.530Z,54.35
2023-02-10T06:24:42.645Z,55.35
2023-02-10T06:27:11.304Z,54.65
2023-02-10T06:29:40.921Z,54.27
2023-02-10T06:32:09.346Z,55.76
2023-02-10T06:34:38.977Z,55.06
2023-02-10T06:37:07.706Z,54.05
2023-02-10T06:39:36.136Z,54.62
2023-02-10T06:42:04.541Z,55.71
2023-02-10T06:44:33.159Z,55.79
2023-02-10T06:47:03.462Z,55.39
2023-02-10T06:49:32.233Z,57.54
2023-02-10T06:52:00.856Z,55.79
2023-02-10T06:54:29.043Z,56.01
2023-02-10T06:56:57.529Z,55.11
2023-02-10T06:59:26.335Z,54.68
2023-02-10T07:02:01.316Z,54.39
2023-02-10T07:04:33.645Z,53.36
2023-02-10T07:07:02.298Z,54.74
2023-02-10T07:09:30.421Z,54.63
2023-02-10T07:12:00.313Z,55.73
2023-02-10T07:14:28.997Z,54.47
2023-02-10T07:16:57.480Z,55.85
2023-02-10T07:19:25.808Z,54.02
2023-02-10T07:21:58.316Z,52.72
2023-02-10T07:24:27.279Z,53.59
2023-02-10T07:26:55.403Z,52.97
2023-02-10T07:29:23.920Z,52.23
2023-02-10T07:31:52.569Z,50.14
2023-02-10T07:34:22.726Z,52.78
2023-02-10T07:36:55.130Z,50.75
2023-02-10T07:39:25.857Z,50.13
2023-02-10T07:41:54.987Z,51.88
2023-02-10T07:44:29.546Z,52.07
2023-02-10T07:46:58.053Z,50.85
2023-02-10T07:49:27.897Z,52.48
2023-02-10T07:51:56.499Z,51.00
2023-02-10T07:54:26.550Z,50.40
2023-02-10T07:56:55.114Z,50.72
2023-02-10T07:59:23.461Z,49.69
2023-02-10T08:01:51.932Z,50.53
2023-02-10T08:04:20.336Z,49.88
2023-02-10T08:06:49.165Z,48.30
2023-02-10T08:09:18.427Z,49.46
2023-02-10T08:11:48.390Z,49.57
2023-02-10T08:14:17.045Z,47.74
2023-02-10T08:16:45.690Z,48.68
2023-02-10T08:19:15.018Z,47.50
2023-02-10T08:21:43.483Z,48.92
2023-02-10T08:24:12.184Z,49.32
2023-02-10T08:26:40.395Z,47.60
2023-02-10T08:29:10.269Z,47.47
2023-02-10T08:31:39.000Z,47.33
2023-02-10T08:34:10.230Z,46.84
2023-02-10T08:36:39.713Z,47.99
2023-02-10T08:39:08.249Z,48.92
2023-02-10T08:41:36.729Z,48.96
2023-02-10T08:44:05.523Z,47.47
2023-02-10T08:46:36.786Z,47.88
2023-02-10T08:49:05.555Z,46.67
2023-02-10T08:51:34.511Z,47.43
2023-02-10T08:54:04.575Z,47.40
2023-02-10T08:56:33.265Z,45.97
2023-02-10T08:59:01.789Z,45.04
2023-02-10T09:01:30.454Z,46.60
2023-02-10T09:04:00.396Z,47.48
2023-02-10T09:06:31.423Z,47.32
2023-02-10T09:09:01.220Z,47.52
2023-02-10T09:11:30.590Z,46.93
2023-02-10T09:13:59.621Z,46.18
2023-02-10T09:16:28.984Z,47.05
2023-02-10T09:18:59.390Z,47.63
2023-02-10T09:21:35.361Z,45.63
2023-02-10T09:24:13.532Z,45.54
2023-02-10T09:26:42.091Z,46.54
2023-02-10T09:29:11.624Z,45.12
2023-02-10T09:31:40.914Z,45.33
2023-02-10T09:34:11.372Z,45.30
2023-02-10T09:36:40.609Z,45.55
2023-02-10T09:39:10.167Z,44.06
2023-02-10T09:41:48.137Z,45.74
2023-02-10T09:44:19.747Z,44.89
2023-02-10T09:47:11.441Z,44.32
2023-02-10T09:49:54.626Z,44.58
2023-02-10T09:52:34.309Z,44.20
2023-02-10T09:55:05.282Z,43.76
2023-02-10T09:57:40.690Z,44.12
2023-02-10T10:00:26.888Z,44.57
2023-02-10T10:02:57.217Z,43.47
2023-02-10T10:05:44.286Z,42.96
2023-02-10T10:08:23.266Z,43.13
2023-02-10T10:10:52.509Z,44.64
2023-02-10T10:13:25.277Z,42.68
2023-02-10T10:16:19.411Z,45.14
2023-02-10T10:19:00.553Z,44.72
2023-02-10T10:21:38.865Z,43.16
2023-02-10T10:24:24.034Z,43.29
2023-02-10T10:27:04.276Z,42.42
2023-02-10T10:29:46.154Z,44.08
2023-02-10T10:32:18.666Z,44.83
2023-02-10T10:34:54.117Z,45.15
2023-02-10T10:37:25.882Z,43.26
2023-02-10T10:39:58.090Z,43.64
2023-02-10T10:42:30.652Z,44.56
2023-02-10T10:45:08.667Z,43.58
2023-02-10T10:47:43.236Z,43.74
2023-02-10T10:50:17.251Z,43.03
2023-02-10T10:52:52.441Z,42.20
2023-02-10T10:55:27.462Z,43.72
2023-02-10T10:57:57.903Z,43.13
2023-02-10T11:00:40.425Z,42.30
2023-02-10T11:03:22.266Z,41.62
2023-02-10T11:06:26.793Z,43.14
2023-02-10T11:09:02.192Z,42.30
2023-02-10T11:11:38.702Z,43.15
2023-02-10T11:14:18.101Z,43.26
2023-02-10T11:16:50.521Z,43.50
2023-02-10T11:19:23.805Z,43.90
2023-02-10T11:21:53.321Z,43.64
2023-02-10T11:24:26.706Z,44.24
2023-02-10T11:27:00.894Z,43.67
2023-02-10T11:29:32.586Z,44.58
2023-02-10T11:32:02.603Z,43.53
2023-02-10T11:34:33.153Z,43.26
2023-02-10T11:37:13.150Z,42.79
2023-02-10T11:39:46.987Z,42.29
2023-02-10T11:42:23.600Z,43.24
2023-02-10T11:44:57.850Z,43.44
2023-02-10T11:47:28.490Z,44.34
2023-02-10T11:49:57.593Z,43.23
2023-02-10T11:52:31.136Z,42.54
2023-02-10T11:55:01.700Z,42.71
2023-02-10T11:58:18.629Z,43.14
2023-02-10T12:00:56.150Z,42.31
2023-02-10T12:03:49.351Z,42.81
2023-02-10T12:06:36.313Z,42.80
2023-02-10T12:09:17.159Z,42.79
2023-02-10T12:11:53.911Z,42.40
2023-02-10T12:14:38.606Z,42.70
2023-02-10T12:17:30.309Z,42.61
2023-02-10T12:20:15.222Z,43.50
2023-02-10T12:22:57.952Z,44.76
2023-02-10T12:25:31.673Z,42.62
2023-02-10T12:28:05.090Z,41.80
2023-02-10T12:30:46.232Z,42.09
2023-02-10T12:33:41.773Z,42.00
2023-02-10T12:36:17.712Z,43.28
2023-02-10T12:38:59.558Z,42.76
2023-02-10T12:41:40.929Z,43.25
2023-02-10T12:44:26.408Z,42.64
2023-02-10T12:47:04.326Z,42.60
2023-02-10T12:49:48.895Z,43.59
2023-02-10T12:52:23.643Z,42.96
2023-02-10T12:54:57.439Z,44.38
2023-02-10T12:57:31.128Z,44.50
2023-02-10T13:00:04.621Z,44.24
2023-02-10T13:02:42.484Z,44.42
2023-02-10T13:05:25.460Z,44.21
2023-02-10T13:07:58.399Z,44.42
2023-02-10T13:10:35.628Z,44.24
2023-02-10T13:13:08.938Z,43.39
2023-02-10T13:15:44.500Z,44.02
2023-02-10T13:18:22.589Z,43.60
2023-02-10T13:21:03.385Z,43.09
2023-02-10T13:23:39.940Z,42.77
2023-02-10T13:26:27.279Z,43.38
2023-02-10T13:29:09.700Z,43.14
2023-02-10T13:31:58.419Z,43.10
2023-02-10T13:34:28.426Z,43.31
2023-02-10T13:37:01.451Z,43.42
2023-02-10T13:39:31.809Z,43.56
2023-02-10T13:42:11.847Z,43.82
2023-02-10T13:44:43.371Z,43.58
2023-02-10T13:47:33.400Z,44.38
2023-02-10T13:50:05.196Z,43.68
2023-02-10T13:52:36.122Z,43.80
2023-02-10T13:55:26.926Z,43.32
2023-02-10T13:57:57.140Z,43.59
2023-02-10T14:00:28.294Z,43.46
2023-02-10T14:03:21.606Z,43.92
2023-02-10T14:05:56.294Z,44.03
2023-02-10T14:08:31.408Z,44.77
2023-02-10T14:11:03.105Z,44.23
2023-02-10T14:13:34.018Z,44.43
2023-02-10T14:16:06.676Z,44.86
2023-02-10T14:18:39.651Z,44.94
2023-02-10T14:21:12.787Z,44.15
2023-02-10T14:23:46.486Z,44.16
2023-02-10T14:26:21.552Z,44.98
2023-02-10T14:28:52.258Z,45.61
2023-02-10T14:31:26.632Z,45.29
2023-02-10T14:33:59.238Z,44.90
2023-02-10T14:36:29.368Z,44.82
2023-02-10T14:39:00.123Z,45.74
2023-02-10T14:41:31.454Z,45.10
2023-02-10T14:44:03.674Z,45.14
2023-02-10T14:46:41.770Z,45.04
2023-02-10T14:49:37.270Z,45.56
2023-02-10T14:52:38.167Z,46.03
2023-02-10T14:55:26.345Z,44.82
2023-02-10T14:57:58.424Z,44.38
2023-02-10T15:00:27.180Z,44.82
2023-02-10T15:02:58.573Z,45.74
2023-02-10T15:05:32.336Z,45.47
2023-02-10T15:08:04.846Z,45.26
2023-02-10T15:10:42.023Z,45.42
2023-02-10T15:13:12.777Z,45.73
2023-02-10T15:15:45.412Z,45.74
2023-02-10T15:18:20.730Z,45.14
2023-02-10T15:20:59.081Z,45.09
2023-02-10T15:23:33.908Z,44.82
2023-02-10T15:26:06.414Z,45.27
2023-02-10T15:28:38.805Z,45.27
2023-02-10T15:31:23.979Z,45.42
2023-02-10T15:33:57.362Z,46.35
2023-02-10T15:36:32.022Z,45.59
2023-02-10T15:39:09.100Z,45.55
2023-02-10T15:42:01.945Z,46.52
2023-02-10T15:44:38.961Z,44.84
2023-02-10T15:47:27.600Z,45.03
2023-02-10T15:49:59.802Z,46.07
2023-02-10T15:52:33.702Z,46.20
2023-02-10T15:55:06.827Z,46.78
2023-02-10T15:57:38.637Z,46.66
2023-02-10T16:00:13.099Z,46.58
2023-02-10T16:02:42.579Z,46.63
2023-02-10T16:05:16.815Z,47.17
2023-02-10T16:07:47.689Z,47.48
2023-02-10T16:10:20.749Z,46.72
2023-02-10T16:12:52.000Z,47.73
2023-02-10T16:15:23.762Z,47.68
2023-02-10T16:18:01.088Z,47.01
2023-02-10T16:20:33.675Z,46.40
2023-02-10T16:23:14.394Z,46.86
2023-02-10T16:25:50.213Z,46.69
2023-02-10T16:28:23.563Z,47.06
2023-02-10T16:30:55.157Z,47.47
2023-02-10T16:33:31.855Z,47.31
2023-02-10T16:36:07.996Z,48.01
2023-02-10T16:38:51.135Z,47.86
2023-02-10T16:41:20.683Z,46.81
2023-02-10T16:43:50.835Z,47.41
2023-02-10T16:46:21.469Z,47.77
2023-02-10T16:48:50.693Z,48.20
2023-02-10T16:51:22.228Z,48.98
2023-02-10T16:53:55.901Z,51.35
2023-02-10T16:56:26.387Z,51.82
2023-02-10T16:58:55.640Z,51.45
2023-02-10T17:01:34.721Z,51.71
2023-02-10T17:04:28.992Z,54.49
2023-02-10T17:07:01.036Z,55.31
2023-02-10T17:09:34.431Z,56.10
2023-02-10T17:12:04.003Z,58.06
2023-02-10T17:14:42.755Z,57.43
2023-02-10T17:17:14.998Z,57.79
2023-02-10T17:19:44.120Z,60.26
2023-02-10T17:22:15.196Z,59.74
2023-02-10T17:24:48.075Z,61.78
2023-02-10T17:27:17.137Z,62.20
2023-02-10T17:29:46.406Z,62.65
2023-02-10T17:32:15.737Z,62.93
2023-02-10T17:34:44.946Z,63.89
2023-02-10T17:37:14.988Z,63.20
2023-02-10T17:39:56.580Z,63.65
2023-02-10T17:42:29.763Z,63.61
2023-02-10T17:45:00.463Z,64.52
2023-02-10T17:47:30.033Z,63.20
2023-02-10T17:50:00.039Z,61.38
2023-02-10T17:52:39.667Z,61.91
2023-02-10T17:55:21.592Z,61.90
2023-02-10T17:57:54.430Z,61.57
2023-02-10T18:00:25.647Z,60.02
2023-02-10T18:02:54.704Z,59.65
2023-02-10T18:05:26.893Z,58.42
2023-02-10T18:07:56.233Z,59.15
2023-02-10T18:10:35.966Z,58.55
2023-02-10T18:13:07.236Z,57.88
2023-02-10T18:15:36.975Z,57.84
2023-02-10T18:18:06.361Z,59.16
2023-02-10T18:20:35.954Z,58.14
2023-02-10T18:23:05.924Z,58.09
2023-02-10T18:25:35.909Z,57.82
2023-02-10T18:28:04.637Z,57.45
2023-02-10T18:30:33.487Z,56.98
2023-02-10T18:33:02.336Z,57.04
2023-02-10T18:35:34.824Z,56.00
2023-02-10T18:38:06.532Z,55.83
2023-02-10T18:40:37.313Z,56.76
2023-02-10T18:43:05.939Z,58.29
2023-02-10T18:45:34.175Z,56.42
2023-02-10T18:48:02.706Z,57.70
2023-02-10T18:50:32.822Z,56.05
2023-02-10T18:53:01.393Z,56.06
2023-02-10T18:55:29.963Z,55.56
2023-02-10T18:58:03.237Z,57.21
2023-02-10T19:00:32.269Z,56.92
2023-02-10T19:03:00.821Z,56.91
2023-02-10T19:05:33.448Z,56.26
2023-02-10T19:08:02.198Z,55.63
2023-02-10T19:10:30.750Z,55.79
2023-02-10T19:13:00.529Z,54.71
2023-02-10T19:15:29.103Z,53.95
2023-02-10T19:17:57.649Z,54.10
2023-02-10T19:20:25.918Z,54.26
2023-02-10T19:22:54.516Z,52.77
2023-02-10T19:25:22.822Z,54.78
2023-02-10T19:27:51.917Z,54.01
2023-02-10T19:30:22.149Z,53.92
2023-02-10T19:32:51.841Z,53.41
2023-02-10T19:35:20.454Z,52.58
2023-02-10T19:37:49.091Z,53.68
2023-02-10T19:40:19.739Z,53.65
2023-02-10T19:42:48.504Z,54.43
2023-02-10T19:45:16.750Z,53.94
2023-02-10T19:47:46.802Z,54.45
2023-02-10T19:50:15.771Z,54.08
2023-02-10T19:52:44.007Z,53.40
2023-02-10T19:55:12.758Z,54.02
2023-02-10T19:57:41.234Z,55.14
2023-02-10T20:00:10.849Z,55.42
2023-02-10T20:02:42.537Z,55.11
2023-02-10T20:05:12.685Z,54.38
2023-02-10T20:07:41.230Z,55.31
2023-02-10T20:10:10.127Z,56.12
2023-02-10T20:12:38.729Z,53.92
2023-02-10T20:15:07.865Z,54.35
2023-02-10T20:17:42.024Z,55.97
2023-02-10T20:20:12.386Z,55.91
2023-02-10T20:22:40.761Z,55.82
2023-02-10T20:25:09.578Z,55.88
2023-02-10T20:27:38.126Z,55.83
2023-02-10T20:30:06.919Z,55.50
2023-02-10T20:32:35.452Z,55.16
2023-02-10T20:35:04.053Z,56.22
2023-02-10T20:37:34.043Z,56.79
2023-02-10T20:40:02.518Z,56.08
2023-02-10T20:42:32.212Z,56.63
2023-02-10T20:45:04.655Z,56.45
2023-02-10T20:47:34.376Z,55.88
2023-02-10T20:50:03.701Z,56.24
2023-02-10T20:52:35.337Z,56.13
2023-02-10T20:55:04.100Z,56.32
2023-02-10T20:57:32.186Z,56.39
2023-02-10T21:00:00.678Z,55.54
2023-02-10T21:02:29.100Z,55.71
2023-02-10T21:04:57.606Z,56.91
2023-02-10T21:07:27.772Z,56.11
2023-02-10T21:09:58.106Z,55.76
2023-02-10T21:12:26.770Z,55.46
2023-02-10T21:14:55.156Z,55.65
2023-02-10T21:17:24.445Z,55.23
2023-02-10T21:19:53.282Z,55.90
2023-02-10T21:22:21.923Z,56.87
2023-02-10T21:24:50.587Z,55.99
2023-02-10T21:27:20.766Z,56.70
2023-02-10T21:29:53.349Z,56.95
2023-02-10T21:32:22.035Z,57.02
2023-02-10T21:34:50.570Z,57.00
2023-02-10T21:37:20.460Z,54.87
2023-02-10T21:39:49.199Z,56.59
2023-02-10T21:42:17.698Z,54.86
2023-02-10T21:44:47.958Z,55.36
2023-02-10T21:47:16.743Z,54.43
2023-02-10T21:49:45.138Z,55.15
2023-02-10T21:52:14.503Z,56.38
2023-02-10T21:54:43.009Z,55.82
2023-02-10T21:57:13.222Z,56.42
2023-02-10T21:59:41.804Z,56.27
2023-02-10T22:02:15.351Z,56.08
2023-02-10T22:04:44.566Z,55.25
2023-02-10T22:07:13.159Z,56.23
2023-02-10T22:09:41.458Z,55.28
2023-02-10T22:12:09.984Z,55.23
2023-02-10T22:14:38.689Z,55.50
2023-02-10T22:17:07.306Z,54.26
2023-02-10T22:19:37.252Z,55.67
2023-02-10T22:22:06.892Z,55.38
2023-02-10T22:24:35.435Z,54.59
2023-02-10T22:27:03.987Z,54.59
2023-02-10T22:29:34.272Z,53.54
2023-02-10T22:32:04.342Z,54.67
2023-02-10T22:34:32.818Z,54.58
2023-02-10T22:37:02.843Z,55.42
2023-02-10T22:39:31.575Z,54.53
2023-02-10T22:42:00.113Z,55.97
2023-02-10T22:44:28.619Z,53.67
2023-02-10T22:46:57.210Z,54.52
2023-02-10T22:49:28.654Z,54.66
2023-02-10T22:51:57.266Z,54.96
2023-02-10T22:54:27.093Z,54.71
2023-02-10T22:56:55.557Z,55.37
2023-02-10T22:59:24.018Z,55.46
2023-02-10T23:01:54.756Z,55.54
2023-02-10T23:04:25.248Z,54.55
2023-02-10T23:06:53.588Z,54.40
2023-02-10T23:09:22.267Z,54.37
2023-02-10T23:11:53.212Z,54.38
2023-02-10T23:14:24.665Z,54.03
2023-02-10T23:16:54.499Z,54.56
2023-02-10T23:19:23.717Z,55.18
2023-02-10T23:21:52.519Z,55.93
2023-02-10T23:24:21.294Z,55.60
2023-02-10T23:26:49.469Z,54.48
2023-02-10T23:29:19.327Z,55.87
2023-02-10T23:31:48.514Z,55.25
2023-02-10T23:34:17.294Z,53.86
2023-02-10T23:36:46.478Z,53.85
2023-02-10T23:39:15.343Z,54.80
2023-02-10T23:41:43.881Z,53.81
2023-02-10T23:44:12.534Z,53.79
2023-02-10T23:46:42.488Z,53.23
2023-02-10T23:49:11.102Z,53.72
2023-02-10T23:51:39.565Z,52.64
2023-02-10T23:54:07.853Z,53.45
2023-02-10T23:56:36.283Z,53.14
2023-02-10T23:59:04.776Z,52.93
